sensor_id;sensor_type;location;lat;lon;timestamp;P1;durP1;ratioP1;P2;durP2;ratioP2
45354;SDS011;31091;48.758;9.150;2023-01-30T00:01:10;17.38;;;9.20;;
45354;SDS011;31091;48.758;9.150;2023-01-30T00:03:56;21.13;;;9.40;;
45354;SDS011;31091;48.758;9.150;2023-01-30T00:06:42;15.52;;;9.05;;
45354;SDS011;31091;48.758;9.150;2023-01-30T00:09:27;15.63;;;8.10;;
45354;SDS011;31091;48.758;9.150;2023-01-30T00:12:12;19.65;;;8.68;;
45354;SDS011;31091;48.758;9.150;2023-01-30T00:14:58;16.63;;;8.20;;
45354;SDS011;31091;48.758;9.150;2023-01-30T00:17:43;15.50;;;8.88;;
45354;SDS011;31091;48.758;9.150;2023-01-30T00:20:28;20.55;;;9.00;;
45354;SDS011;31091;48.758;9.150;2023-01-30T00:23:14;17.13;;;8.57;;
45354;SDS011;31091;48.758;9.150;2023-01-30T00:25:59;17.30;;;8.65;;
45354;SDS011;31091;48.758;9.150;2023-01-30T00:28:44;19.08;;;7.78;;
45354;SDS011;31091;48.758;9.150;2023-01-30T00:31:29;14.43;;;7.80;;
45354;SDS011;31091;48.758;9.150;2023-01-30T00:34:14;15.00;;;8.00;;
45354;SDS011;31091;48.758;9.150;2023-01-30T00:37:00;16.75;;;8.48;;
45354;SDS011;31091;48.758;9.150;2023-01-30T00:39:45;18.63;;;8.48;;
45354;SDS011;31091;48.758;9.150;2023-01-30T00:42:30;14.00;;;7.97;;
45354;SDS011;31091;48.758;9.150;2023-01-30T00:45:34;14.52;;;8.93;;
45354;SDS011;31091;48.758;9.150;2023-01-30T00:48:39;15.57;;;8.00;;
45354;SDS011;31091;48.758;9.150;2023-01-30T00:51:24;14.73;;;7.78;;
45354;SDS011;31091;48.758;9.150;2023-01-30T00:54:09;17.58;;;8.60;;
45354;SDS011;31091;48.758;9.150;2023-01-30T00:56:54;15.77;;;7.95;;
45354;SDS011;31091;48.758;9.150;2023-01-30T00:59:40;13.48;;;8.60;;
45354;SDS011;31091;48.758;9.150;2023-01-30T01:02:25;18.13;;;10.18;;
45354;SDS011;31091;48.758;9.150;2023-01-30T01:05:10;16.75;;;9.52;;
45354;SDS011;31091;48.758;9.150;2023-01-30T01:07:55;14.98;;;7.90;;
45354;SDS011;31091;48.758;9.150;2023-01-30T01:10:41;16.55;;;8.07;;
45354;SDS011;31091;48.758;9.150;2023-01-30T01:13:26;20.92;;;9.27;;
45354;SDS011;31091;48.758;9.150;2023-01-30T01:16:11;18.52;;;8.52;;
45354;SDS011;31091;48.758;9.150;2023-01-30T01:18:56;16.55;;;8.75;;
45354;SDS011;31091;48.758;9.150;2023-01-30T01:21:42;15.15;;;9.35;;
45354;SDS011;31091;48.758;9.150;2023-01-30T01:24:27;16.05;;;9.25;;
45354;SDS011;31091;48.758;9.150;2023-01-30T01:27:12;16.75;;;8.50;;
45354;SDS011;31091;48.758;9.150;2023-01-30T01:29:57;16.33;;;8.48;;
45354;SDS011;31091;48.758;9.150;2023-01-30T01:32:43;16.73;;;9.43;;
45354;SDS011;31091;48.758;9.150;2023-01-30T01:35:28;17.63;;;8.48;;
45354;SDS011;31091;48.758;9.150;2023-01-30T01:38:13;16.13;;;8.85;;
45354;SDS011;31091;48.758;9.150;2023-01-30T01:40:59;16.90;;;8.75;;
45354;SDS011;31091;48.758;9.150;2023-01-30T01:44:04;14.30;;;8.45;;
45354;SDS011;31091;48.758;9.150;2023-01-30T01:46:56;16.20;;;9.07;;
45354;SDS011;31091;48.758;9.150;2023-01-30T01:49:42;15.93;;;8.38;;
45354;SDS011;31091;48.758;9.150;2023-01-30T01:52:28;16.67;;;8.32;;
45354;SDS011;31091;48.758;9.150;2023-01-30T01:55:13;15.18;;;7.82;;
45354;SDS011;31091;48.758;9.150;2023-01-30T01:58:13;15.75;;;9.60;;
45354;SDS011;31091;48.758;9.150;2023-01-30T02:01:00;16.67;;;9.23;;
45354;SDS011;31091;48.758;9.150;2023-01-30T02:03:49;16.35;;;8.30;;
45354;SDS011;31091;48.758;9.150;2023-01-30T02:06:37;15.73;;;8.05;;
45354;SDS011;31091;48.758;9.150;2023-01-30T02:09:23;15.18;;;8.20;;
45354;SDS011;31091;48.758;9.150;2023-01-30T02:12:08;15.52;;;9.02;;
45354;SDS011;31091;48.758;9.150;2023-01-30T02:14:55;15.30;;;8.00;;
45354;SDS011;31091;48.758;9.150;2023-01-30T02:17:41;14.77;;;7.75;;
45354;SDS011;31091;48.758;9.150;2023-01-30T02:20:35;18.00;;;9.88;;
45354;SDS011;31091;48.758;9.150;2023-01-30T02:32:52;19.67;;;9.35;;
45354;SDS011;31091;48.758;9.150;2023-01-30T02:35:54;16.95;;;8.77;;
45354;SDS011;31091;48.758;9.150;2023-01-30T02:38:47;15.93;;;8.52;;
45354;SDS011;31091;48.758;9.150;2023-01-30T02:41:35;15.48;;;9.23;;
45354;SDS011;31091;48.758;9.150;2023-01-30T02:47:14;17.63;;;9.32;;
45354;SDS011;31091;48.758;9.150;2023-01-30T02:50:03;16.08;;;8.68;;
45354;SDS011;31091;48.758;9.150;2023-01-30T02:52:51;15.90;;;8.48;;
45354;SDS011;31091;48.758;9.150;2023-01-30T02:55:38;15.35;;;9.20;;
45354;SDS011;31091;48.758;9.150;2023-01-30T02:58:24;15.60;;;8.65;;
45354;SDS011;31091;48.758;9.150;2023-01-30T03:01:26;17.05;;;9.55;;
45354;SDS011;31091;48.758;9.150;2023-01-30T03:16:02;19.77;;;9.18;;
45354;SDS011;31091;48.758;9.150;2023-01-30T03:18:49;18.05;;;9.50;;
45354;SDS011;31091;48.758;9.150;2023-01-30T03:21:38;15.93;;;9.73;;
45354;SDS011;31091;48.758;9.150;2023-01-30T03:24:23;17.23;;;9.63;;
45354;SDS011;31091;48.758;9.150;2023-01-30T03:27:10;19.10;;;9.90;;
45354;SDS011;31091;48.758;9.150;2023-01-30T03:29:55;18.35;;;9.63;;
45354;SDS011;31091;48.758;9.150;2023-01-30T03:32:40;18.55;;;10.10;;
45354;SDS011;31091;48.758;9.150;2023-01-30T03:35:26;24.38;;;10.27;;
45354;SDS011;31091;48.758;9.150;2023-01-30T03:38:11;18.35;;;9.98;;
45354;SDS011;31091;48.758;9.150;2023-01-30T03:40:57;16.70;;;8.93;;
45354;SDS011;31091;48.758;9.150;2023-01-30T03:43:42;16.77;;;9.82;;
45354;SDS011;31091;48.758;9.150;2023-01-30T03:46:28;14.30;;;8.18;;
45354;SDS011;31091;48.758;9.150;2023-01-30T03:49:13;15.45;;;8.35;;
45354;SDS011;31091;48.758;9.150;2023-01-30T03:51:58;14.93;;;9.18;;
45354;SDS011;31091;48.758;9.150;2023-01-30T03:54:43;15.35;;;8.82;;
45354;SDS011;31091;48.758;9.150;2023-01-30T03:57:28;17.48;;;8.68;;
45354;SDS011;31091;48.758;9.150;2023-01-30T04:00:14;16.35;;;8.25;;
45354;SDS011;31091;48.758;9.150;2023-01-30T04:02:59;13.95;;;8.93;;
45354;SDS011;31091;48.758;9.150;2023-01-30T04:05:44;14.77;;;9.52;;
45354;SDS011;31091;48.758;9.150;2023-01-30T04:08:30;14.45;;;8.07;;
45354;SDS011;31091;48.758;9.150;2023-01-30T04:11:15;16.05;;;8.35;;
45354;SDS011;31091;48.758;9.150;2023-01-30T04:14:00;18.55;;;9.35;;
45354;SDS011;31091;48.758;9.150;2023-01-30T04:16:45;14.93;;;7.90;;
45354;SDS011;31091;48.758;9.150;2023-01-30T04:19:31;12.95;;;7.38;;
45354;SDS011;31091;48.758;9.150;2023-01-30T04:22:16;14.85;;;7.80;;
45354;SDS011;31091;48.758;9.150;2023-01-30T04:25:01;14.30;;;7.43;;
45354;SDS011;31091;48.758;9.150;2023-01-30T04:27:47;14.60;;;7.50;;
45354;SDS011;31091;48.758;9.150;2023-01-30T04:30:32;15.48;;;8.63;;
45354;SDS011;31091;48.758;9.150;2023-01-30T04:33:17;11.48;;;6.85;;
45354;SDS011;31091;48.758;9.150;2023-01-30T04:36:03;13.02;;;7.30;;
45354;SDS011;31091;48.758;9.150;2023-01-30T04:38:48;12.73;;;7.07;;
45354;SDS011;31091;48.758;9.150;2023-01-30T04:41:33;14.60;;;7.78;;
45354;SDS011;31091;48.758;9.150;2023-01-30T04:44:19;10.55;;;6.57;;
45354;SDS011;31091;48.758;9.150;2023-01-30T04:47:04;13.63;;;7.30;;
45354;SDS011;31091;48.758;9.150;2023-01-30T04:49:49;13.13;;;6.82;;
45354;SDS011;31091;48.758;9.150;2023-01-30T04:52:35;15.13;;;8.18;;
45354;SDS011;31091;48.758;9.150;2023-01-30T04:55:21;15.15;;;7.05;;
45354;SDS011;31091;48.758;9.150;2023-01-30T04:58:06;13.43;;;7.38;;
45354;SDS011;31091;48.758;9.150;2023-01-30T05:00:51;13.05;;;7.28;;
45354;SDS011;31091;48.758;9.150;2023-01-30T05:03:36;12.57;;;7.20;;
45354;SDS011;31091;48.758;9.150;2023-01-30T05:06:22;14.35;;;7.20;;
45354;SDS011;31091;48.758;9.150;2023-01-30T05:09:07;14.25;;;6.95;;
45354;SDS011;31091;48.758;9.150;2023-01-30T05:11:52;12.77;;;6.70;;
45354;SDS011;31091;48.758;9.150;2023-01-30T05:14:37;11.98;;;6.53;;
45354;SDS011;31091;48.758;9.150;2023-01-30T05:17:25;12.60;;;6.32;;
45354;SDS011;31091;48.758;9.150;2023-01-30T05:20:11;13.80;;;7.45;;
45354;SDS011;31091;48.758;9.150;2023-01-30T05:22:56;12.40;;;6.47;;
45354;SDS011;31091;48.758;9.150;2023-01-30T05:25:41;14.38;;;7.63;;
45354;SDS011;31091;48.758;9.150;2023-01-30T05:28:27;12.90;;;7.30;;
45354;SDS011;31091;48.758;9.150;2023-01-30T05:31:13;13.00;;;6.75;;
45354;SDS011;31091;48.758;9.150;2023-01-30T05:33:58;11.38;;;6.97;;
45354;SDS011;31091;48.758;9.150;2023-01-30T05:36:43;13.63;;;6.32;;
45354;SDS011;31091;48.758;9.150;2023-01-30T05:39:28;13.57;;;7.93;;
45354;SDS011;31091;48.758;9.150;2023-01-30T05:42:14;12.45;;;7.38;;
45354;SDS011;31091;48.758;9.150;2023-01-30T05:44:59;11.93;;;6.22;;
45354;SDS011;31091;48.758;9.150;2023-01-30T05:47:48;14.23;;;6.13;;
45354;SDS011;31091;48.758;9.150;2023-01-30T05:53:19;11.68;;;6.18;;
45354;SDS011;31091;48.758;9.150;2023-01-30T05:56:05;11.82;;;6.35;;
45354;SDS011;31091;48.758;9.150;2023-01-30T05:58:51;13.85;;;6.45;;
45354;SDS011;31091;48.758;9.150;2023-01-30T06:01:36;12.40;;;6.70;;
45354;SDS011;31091;48.758;9.150;2023-01-30T06:04:21;11.02;;;5.95;;
45354;SDS011;31091;48.758;9.150;2023-01-30T06:07:07;14.85;;;7.90;;
45354;SDS011;31091;48.758;9.150;2023-01-30T06:09:52;15.10;;;7.53;;
45354;SDS011;31091;48.758;9.150;2023-01-30T06:12:37;12.80;;;6.50;;
45354;SDS011;31091;48.758;9.150;2023-01-30T06:15:22;11.13;;;6.03;;
45354;SDS011;31091;48.758;9.150;2023-01-30T06:18:07;13.02;;;6.88;;
45354;SDS011;31091;48.758;9.150;2023-01-30T06:20:53;14.07;;;6.70;;
45354;SDS011;31091;48.758;9.150;2023-01-30T06:23:38;11.48;;;6.45;;
45354;SDS011;31091;48.758;9.150;2023-01-30T06:26:23;15.75;;;7.40;;
45354;SDS011;31091;48.758;9.150;2023-01-30T06:29:09;13.82;;;7.07;;
45354;SDS011;31091;48.758;9.150;2023-01-30T06:31:54;12.32;;;5.93;;
45354;SDS011;31091;48.758;9.150;2023-01-30T06:34:39;11.13;;;6.05;;
45354;SDS011;31091;48.758;9.150;2023-01-30T06:37:24;12.75;;;6.68;;
45354;SDS011;31091;48.758;9.150;2023-01-30T06:40:10;10.82;;;6.18;;
45354;SDS011;31091;48.758;9.150;2023-01-30T06:42:55;14.68;;;6.97;;
45354;SDS011;31091;48.758;9.150;2023-01-30T06:45:41;16.27;;;7.47;;
45354;SDS011;31091;48.758;9.150;2023-01-30T06:48:26;10.73;;;6.28;;
45354;SDS011;31091;48.758;9.150;2023-01-30T06:51:11;12.02;;;6.65;;
45354;SDS011;31091;48.758;9.150;2023-01-30T06:53:57;12.48;;;6.72;;
45354;SDS011;31091;48.758;9.150;2023-01-30T06:56:42;11.70;;;6.47;;
45354;SDS011;31091;48.758;9.150;2023-01-30T06:59:27;12.82;;;5.80;;
45354;SDS011;31091;48.758;9.150;2023-01-30T07:02:12;13.00;;;6.72;;
45354;SDS011;31091;48.758;9.150;2023-01-30T07:04:57;11.65;;;5.68;;
45354;SDS011;31091;48.758;9.150;2023-01-30T07:07:43;11.02;;;6.72;;
45354;SDS011;31091;48.758;9.150;2023-01-30T07:10:28;12.77;;;5.72;;
45354;SDS011;31091;48.758;9.150;2023-01-30T07:13:15;11.52;;;6.28;;
45354;SDS011;31091;48.758;9.150;2023-01-30T07:16:01;10.57;;;5.53;;
45354;SDS011;31091;48.758;9.150;2023-01-30T07:18:46;11.65;;;6.05;;
45354;SDS011;31091;48.758;9.150;2023-01-30T07:21:31;11.95;;;6.68;;
45354;SDS011;31091;48.758;9.150;2023-01-30T07:24:16;11.85;;;5.93;;
45354;SDS011;31091;48.758;9.150;2023-01-30T07:27:02;12.82;;;6.82;;
45354;SDS011;31091;48.758;9.150;2023-01-30T07:29:47;13.35;;;6.70;;
45354;SDS011;31091;48.758;9.150;2023-01-30T07:32:32;14.93;;;7.32;;
45354;SDS011;31091;48.758;9.150;2023-01-30T07:35:17;11.45;;;5.90;;
45354;SDS011;31091;48.758;9.150;2023-01-30T07:38:03;11.07;;;6.38;;
45354;SDS011;31091;48.758;9.150;2023-01-30T07:40:48;9.63;;;5.32;;
45354;SDS011;31091;48.758;9.150;2023-01-30T07:43:34;12.93;;;6.93;;
45354;SDS011;31091;48.758;9.150;2023-01-30T07:46:19;10.02;;;5.80;;
45354;SDS011;31091;48.758;9.150;2023-01-30T07:49:04;11.40;;;5.80;;
45354;SDS011;31091;48.758;9.150;2023-01-30T07:51:50;10.57;;;5.70;;
45354;SDS011;31091;48.758;9.150;2023-01-30T07:54:35;11.82;;;5.90;;
45354;SDS011;31091;48.758;9.150;2023-01-30T07:57:21;9.93;;;5.38;;
45354;SDS011;31091;48.758;9.150;2023-01-30T08:00:06;10.63;;;5.72;;
45354;SDS011;31091;48.758;9.150;2023-01-30T08:02:54;13.10;;;6.35;;
45354;SDS011;31091;48.758;9.150;2023-01-30T08:05:39;11.07;;;5.20;;
45354;SDS011;31091;48.758;9.150;2023-01-30T08:08:24;11.00;;;5.30;;
45354;SDS011;31091;48.758;9.150;2023-01-30T08:11:10;11.63;;;5.85;;
45354;SDS011;31091;48.758;9.150;2023-01-30T08:13:55;11.00;;;5.90;;
45354;SDS011;31091;48.758;9.150;2023-01-30T08:16:40;10.43;;;6.60;;
45354;SDS011;31091;48.758;9.150;2023-01-30T08:19:25;8.70;;;4.78;;
45354;SDS011;31091;48.758;9.150;2023-01-30T08:22:11;9.05;;;5.25;;
45354;SDS011;31091;48.758;9.150;2023-01-30T08:24:56;8.95;;;4.88;;
45354;SDS011;31091;48.758;9.150;2023-01-30T08:27:41;10.15;;;5.03;;
45354;SDS011;31091;48.758;9.150;2023-01-30T08:30:27;10.43;;;5.85;;
45354;SDS011;31091;48.758;9.150;2023-01-30T08:33:14;12.68;;;5.72;;
45354;SDS011;31091;48.758;9.150;2023-01-30T08:35:59;9.65;;;5.38;;
45354;SDS011;31091;48.758;9.150;2023-01-30T08:38:44;9.55;;;4.97;;
45354;SDS011;31091;48.758;9.150;2023-01-30T08:41:29;9.75;;;5.65;;
45354;SDS011;31091;48.758;9.150;2023-01-30T08:44:14;11.38;;;5.65;;
45354;SDS011;31091;48.758;9.150;2023-01-30T08:47:00;10.63;;;5.95;;
45354;SDS011;31091;48.758;9.150;2023-01-30T08:49:45;9.80;;;5.63;;
45354;SDS011;31091;48.758;9.150;2023-01-30T08:52:31;9.75;;;5.00;;
45354;SDS011;31091;48.758;9.150;2023-01-30T08:55:16;10.93;;;5.70;;
45354;SDS011;31091;48.758;9.150;2023-01-30T08:58:02;8.35;;;4.65;;
45354;SDS011;31091;48.758;9.150;2023-01-30T09:00:47;10.05;;;5.28;;
45354;SDS011;31091;48.758;9.150;2023-01-30T09:03:33;8.18;;;5.05;;
45354;SDS011;31091;48.758;9.150;2023-01-30T09:06:18;9.30;;;5.28;;
45354;SDS011;31091;48.758;9.150;2023-01-30T09:09:04;8.93;;;4.70;;
45354;SDS011;31091;48.758;9.150;2023-01-30T09:11:49;9.85;;;5.90;;
45354;SDS011;31091;48.758;9.150;2023-01-30T09:14:34;9.05;;;5.03;;
45354;SDS011;31091;48.758;9.150;2023-01-30T09:17:22;9.27;;;4.50;;
45354;SDS011;31091;48.758;9.150;2023-01-30T09:20:08;11.27;;;5.82;;
45354;SDS011;31091;48.758;9.150;2023-01-30T09:22:53;9.05;;;5.13;;
45354;SDS011;31091;48.758;9.150;2023-01-30T09:25:39;9.00;;;5.05;;
45354;SDS011;31091;48.758;9.150;2023-01-30T09:28:24;10.82;;;4.95;;
45354;SDS011;31091;48.758;9.150;2023-01-30T09:31:09;10.55;;;5.70;;
45354;SDS011;31091;48.758;9.150;2023-01-30T09:33:55;7.97;;;4.35;;
45354;SDS011;31091;48.758;9.150;2023-01-30T09:36:40;9.43;;;5.30;;
45354;SDS011;31091;48.758;9.150;2023-01-30T09:39:26;9.27;;;4.53;;
45354;SDS011;31091;48.758;9.150;2023-01-30T09:51:39;7.80;;;3.88;;
45354;SDS011;31091;48.758;9.150;2023-01-30T09:56:50;7.60;;;4.18;;
45354;SDS011;31091;48.758;9.150;2023-01-30T10:05:45;8.18;;;4.07;;
45354;SDS011;31091;48.758;9.150;2023-01-30T10:11:41;7.43;;;3.85;;
45354;SDS011;31091;48.758;9.150;2023-01-30T10:20:40;6.60;;;3.25;;
45354;SDS011;31091;48.758;9.150;2023-01-30T10:26:31;4.75;;;2.78;;
45354;SDS011;31091;48.758;9.150;2023-01-30T10:29:19;6.88;;;3.25;;
45354;SDS011;31091;48.758;9.150;2023-01-30T10:32:09;4.63;;;2.30;;
45354;SDS011;31091;48.758;9.150;2023-01-30T10:34:57;5.18;;;2.83;;
45354;SDS011;31091;48.758;9.150;2023-01-30T10:37:52;4.63;;;2.50;;
45354;SDS011;31091;48.758;9.150;2023-01-30T10:40:41;7.35;;;2.92;;
45354;SDS011;31091;48.758;9.150;2023-01-30T10:43:31;5.18;;;2.50;;
45354;SDS011;31091;48.758;9.150;2023-01-30T10:46:33;3.80;;;2.20;;
45354;SDS011;31091;48.758;9.150;2023-01-30T10:49:24;3.58;;;2.38;;
45354;SDS011;31091;48.758;9.150;2023-01-30T11:00:38;5.60;;;2.50;;
45354;SDS011;31091;48.758;9.150;2023-01-30T11:06:30;4.32;;;2.33;;
45354;SDS011;31091;48.758;9.150;2023-01-30T11:09:16;2.70;;;2.20;;
45354;SDS011;31091;48.758;9.150;2023-01-30T11:12:01;5.10;;;2.55;;
45354;SDS011;31091;48.758;9.150;2023-01-30T11:14:51;4.20;;;2.00;;
45354;SDS011;31091;48.758;9.150;2023-01-30T11:17:38;5.22;;;2.20;;
45354;SDS011;31091;48.758;9.150;2023-01-30T11:20:23;4.65;;;2.20;;
45354;SDS011;31091;48.758;9.150;2023-01-30T11:23:25;3.60;;;2.28;;
45354;SDS011;31091;48.758;9.150;2023-01-30T11:26:17;3.58;;;2.22;;
45354;SDS011;31091;48.758;9.150;2023-01-30T11:32:11;5.22;;;2.75;;
45354;SDS011;31091;48.758;9.150;2023-01-30T11:35:30;5.85;;;2.88;;
45354;SDS011;31091;48.758;9.150;2023-01-30T11:38:21;6.75;;;3.10;;
45354;SDS011;31091;48.758;9.150;2023-01-30T11:41:18;5.67;;;3.20;;
45354;SDS011;31091;48.758;9.150;2023-01-30T11:44:04;4.60;;;2.25;;
45354;SDS011;31091;48.758;9.150;2023-01-30T11:46:49;6.85;;;3.60;;
45354;SDS011;31091;48.758;9.150;2023-01-30T11:49:36;5.95;;;3.17;;
45354;SDS011;31091;48.758;9.150;2023-01-30T11:52:23;5.72;;;2.92;;
45354;SDS011;31091;48.758;9.150;2023-01-30T11:55:12;7.28;;;3.33;;
45354;SDS011;31091;48.758;9.150;2023-01-30T11:57:58;6.80;;;3.47;;
45354;SDS011;31091;48.758;9.150;2023-01-30T12:00:46;6.80;;;3.50;;
45354;SDS011;31091;48.758;9.150;2023-01-30T12:03:32;5.82;;;3.47;;
45354;SDS011;31091;48.758;9.150;2023-01-30T12:06:28;8.35;;;3.40;;
45354;SDS011;31091;48.758;9.150;2023-01-30T12:15:24;11.57;;;3.60;;
45354;SDS011;31091;48.758;9.150;2023-01-30T12:20:55;7.30;;;4.22;;
45354;SDS011;31091;48.758;9.150;2023-01-30T12:23:44;6.28;;;3.60;;
45354;SDS011;31091;48.758;9.150;2023-01-30T12:26:36;7.05;;;3.22;;
45354;SDS011;31091;48.758;9.150;2023-01-30T12:32:13;7.32;;;3.45;;
45354;SDS011;31091;48.758;9.150;2023-01-30T12:35:00;7.32;;;3.55;;
45354;SDS011;31091;48.758;9.150;2023-01-30T12:40:53;7.30;;;3.33;;
45354;SDS011;31091;48.758;9.150;2023-01-30T12:44:03;7.35;;;3.90;;
45354;SDS011;31091;48.758;9.150;2023-01-30T12:52:46;8.10;;;3.58;;
45354;SDS011;31091;48.758;9.150;2023-01-30T12:58:24;5.88;;;2.85;;
45354;SDS011;31091;48.758;9.150;2023-01-30T13:04:28;6.53;;;3.40;;
45354;SDS011;31091;48.758;9.150;2023-01-30T13:10:07;7.18;;;3.50;;
45354;SDS011;31091;48.758;9.150;2023-01-30T13:18:36;5.75;;;3.05;;
45354;SDS011;31091;48.758;9.150;2023-01-30T13:21:26;6.53;;;3.20;;
45354;SDS011;31091;48.758;9.150;2023-01-30T13:27:09;7.05;;;3.53;;
45354;SDS011;31091;48.758;9.150;2023-01-30T13:29:56;6.15;;;3.30;;
45354;SDS011;31091;48.758;9.150;2023-01-30T13:32:44;8.93;;;4.28;;
45354;SDS011;31091;48.758;9.150;2023-01-30T13:35:31;8.38;;;3.67;;
45354;SDS011;31091;48.758;9.150;2023-01-30T13:38:18;7.47;;;3.33;;
45354;SDS011;31091;48.758;9.150;2023-01-30T13:41:05;7.53;;;3.78;;
45354;SDS011;31091;48.758;9.150;2023-01-30T13:43:51;7.13;;;3.47;;
45354;SDS011;31091;48.758;9.150;2023-01-30T13:46:37;7.85;;;3.85;;
45354;SDS011;31091;48.758;9.150;2023-01-30T13:49:35;5.60;;;3.10;;
45354;SDS011;31091;48.758;9.150;2023-01-30T13:52:34;9.52;;;4.35;;
45354;SDS011;31091;48.758;9.150;2023-01-30T13:55:24;9.45;;;4.13;;
45354;SDS011;31091;48.758;9.150;2023-01-30T14:01:15;8.63;;;3.35;;
45354;SDS011;31091;48.758;9.150;2023-01-30T14:04:22;8.90;;;4.03;;
45354;SDS011;31091;48.758;9.150;2023-01-30T14:10:11;7.35;;;3.13;;
45354;SDS011;31091;48.758;9.150;2023-01-30T14:13:02;3.80;;;2.35;;
45354;SDS011;31091;48.758;9.150;2023-01-30T14:15:58;5.95;;;2.47;;
45354;SDS011;31091;48.758;9.150;2023-01-30T14:18:44;4.75;;;2.45;;
45354;SDS011;31091;48.758;9.150;2023-01-30T14:21:29;5.55;;;2.15;;
45354;SDS011;31091;48.758;9.150;2023-01-30T14:24:17;3.67;;;1.88;;
45354;SDS011;31091;48.758;9.150;2023-01-30T14:27:21;4.72;;;2.00;;
45354;SDS011;31091;48.758;9.150;2023-01-30T14:30:52;2.20;;;1.50;;
45354;SDS011;31091;48.758;9.150;2023-01-30T14:38:55;3.97;;;1.40;;
45354;SDS011;31091;48.758;9.150;2023-01-30T14:41:40;3.10;;;1.30;;
45354;SDS011;31091;48.758;9.150;2023-01-30T14:47:30;2.03;;;1.00;;
45354;SDS011;31091;48.758;9.150;2023-01-30T14:50:20;2.00;;;1.33;;
45354;SDS011;31091;48.758;9.150;2023-01-30T14:53:09;3.63;;;1.65;;
45354;SDS011;31091;48.758;9.150;2023-01-30T14:56:00;4.75;;;1.55;;
45354;SDS011;31091;48.758;9.150;2023-01-30T14:58:50;2.90;;;1.67;;
45354;SDS011;31091;48.758;9.150;2023-01-30T15:07:30;2.38;;;1.67;;
45354;SDS011;31091;48.758;9.150;2023-01-30T15:16:20;3.55;;;2.40;;
45354;SDS011;31091;48.758;9.150;2023-01-30T15:24:48;3.72;;;2.13;;
45354;SDS011;31091;48.758;9.150;2023-01-30T15:33:19;4.65;;;2.22;;
45354;SDS011;31091;48.758;9.150;2023-01-30T15:39:17;5.50;;;2.65;;
45354;SDS011;31091;48.758;9.150;2023-01-30T15:42:04;3.47;;;1.92;;
45354;SDS011;31091;48.758;9.150;2023-01-30T15:45:06;5.55;;;2.42;;
45354;SDS011;31091;48.758;9.150;2023-01-30T15:50:46;4.07;;;2.63;;
45354;SDS011;31091;48.758;9.150;2023-01-30T15:53:35;3.88;;;2.35;;
45354;SDS011;31091;48.758;9.150;2023-01-30T15:56:28;6.72;;;3.08;;
45354;SDS011;31091;48.758;9.150;2023-01-30T15:59:22;3.95;;;2.80;;
45354;SDS011;31091;48.758;9.150;2023-01-30T16:02:15;4.47;;;2.65;;
45354;SDS011;31091;48.758;9.150;2023-01-30T16:05:12;10.50;;;3.40;;
45354;SDS011;31091;48.758;9.150;2023-01-30T16:08:07;5.63;;;3.00;;
45354;SDS011;31091;48.758;9.150;2023-01-30T16:10:53;5.00;;;3.35;;
45354;SDS011;31091;48.758;9.150;2023-01-30T16:13:38;7.35;;;3.22;;
45354;SDS011;31091;48.758;9.150;2023-01-30T16:16:23;9.80;;;3.15;;
45354;SDS011;31091;48.758;9.150;2023-01-30T16:19:11;5.70;;;2.53;;
45354;SDS011;31091;48.758;9.150;2023-01-30T16:22:03;5.70;;;2.85;;
45354;SDS011;31091;48.758;9.150;2023-01-30T16:24:49;6.20;;;3.50;;
45354;SDS011;31091;48.758;9.150;2023-01-30T16:27:36;5.53;;;3.00;;
45354;SDS011;31091;48.758;9.150;2023-01-30T16:30:23;5.35;;;3.15;;
45354;SDS011;31091;48.758;9.150;2023-01-30T16:33:12;5.22;;;3.05;;
45354;SDS011;31091;48.758;9.150;2023-01-30T16:35:59;5.13;;;2.58;;
45354;SDS011;31091;48.758;9.150;2023-01-30T16:38:44;5.07;;;2.70;;
45354;SDS011;31091;48.758;9.150;2023-01-30T16:41:34;6.63;;;3.10;;
45354;SDS011;31091;48.758;9.150;2023-01-30T16:44:20;9.20;;;3.15;;
45354;SDS011;31091;48.758;9.150;2023-01-30T16:47:25;6.43;;;2.92;;
45354;SDS011;31091;48.758;9.150;2023-01-30T16:50:23;4.78;;;2.78;;
45354;SDS011;31091;48.758;9.150;2023-01-30T16:53:15;7.85;;;2.95;;
45354;SDS011;31091;48.758;9.150;2023-01-30T16:56:06;4.68;;;2.40;;
45354;SDS011;31091;48.758;9.150;2023-01-30T16:58:55;7.03;;;2.83;;
45354;SDS011;31091;48.758;9.150;2023-01-30T17:01:41;6.65;;;4.15;;
45354;SDS011;31091;48.758;9.150;2023-01-30T17:04:27;6.13;;;2.60;;
45354;SDS011;31091;48.758;9.150;2023-01-30T17:07:28;6.13;;;2.90;;
45354;SDS011;31091;48.758;9.150;2023-01-30T17:19:05;6.78;;;2.50;;
45354;SDS011;31091;48.758;9.150;2023-01-30T17:21:50;5.03;;;2.85;;
45354;SDS011;31091;48.758;9.150;2023-01-30T17:24:37;5.75;;;2.92;;
45354;SDS011;31091;48.758;9.150;2023-01-30T17:27:22;5.25;;;2.78;;
45354;SDS011;31091;48.758;9.150;2023-01-30T17:30:11;12.05;;;3.38;;
45354;SDS011;31091;48.758;9.150;2023-01-30T17:32:56;4.68;;;2.80;;
45354;SDS011;31091;48.758;9.150;2023-01-30T17:35:42;8.80;;;3.38;;
45354;SDS011;31091;48.758;9.150;2023-01-30T17:38:28;6.30;;;3.13;;
45354;SDS011;31091;48.758;9.150;2023-01-30T17:41:17;5.72;;;3.00;;
45354;SDS011;31091;48.758;9.150;2023-01-30T17:44:03;5.57;;;2.40;;
45354;SDS011;31091;48.758;9.150;2023-01-30T17:46:48;7.75;;;3.50;;
45354;SDS011;31091;48.758;9.150;2023-01-30T17:49:33;7.90;;;2.80;;
45354;SDS011;31091;48.758;9.150;2023-01-30T17:52:19;6.07;;;2.80;;
45354;SDS011;31091;48.758;9.150;2023-01-30T17:55:04;5.18;;;2.55;;
45354;SDS011;31091;48.758;9.150;2023-01-30T17:57:49;5.70;;;3.08;;
45354;SDS011;31091;48.758;9.150;2023-01-30T18:00:35;11.73;;;3.08;;
45354;SDS011;31091;48.758;9.150;2023-01-30T18:03:20;9.48;;;2.97;;
45354;SDS011;31091;48.758;9.150;2023-01-30T18:06:05;5.78;;;2.65;;
45354;SDS011;31091;48.758;9.150;2023-01-30T18:08:50;7.35;;;2.92;;
45354;SDS011;31091;48.758;9.150;2023-01-30T18:11:36;4.85;;;3.05;;
45354;SDS011;31091;48.758;9.150;2023-01-30T18:14:21;4.90;;;3.13;;
45354;SDS011;31091;48.758;9.150;2023-01-30T18:17:06;5.65;;;3.55;;
45354;SDS011;31091;48.758;9.150;2023-01-30T18:19:53;7.90;;;3.55;;
45354;SDS011;31091;48.758;9.150;2023-01-30T18:22:39;6.60;;;3.55;;
45354;SDS011;31091;48.758;9.150;2023-01-30T18:25:24;8.35;;;2.85;;
45354;SDS011;31091;48.758;9.150;2023-01-30T18:28:09;7.07;;;2.85;;
45354;SDS011;31091;48.758;9.150;2023-01-30T18:30:55;6.07;;;3.28;;
45354;SDS011;31091;48.758;9.150;2023-01-30T18:33:41;8.25;;;3.80;;
45354;SDS011;31091;48.758;9.150;2023-01-30T18:36:28;5.70;;;3.08;;
45354;SDS011;31091;48.758;9.150;2023-01-30T18:39:13;10.00;;;3.47;;
45354;SDS011;31091;48.758;9.150;2023-01-30T18:41:59;6.78;;;3.38;;
45354;SDS011;31091;48.758;9.150;2023-01-30T18:44:46;9.93;;;4.18;;
45354;SDS011;31091;48.758;9.150;2023-01-30T18:47:31;9.70;;;3.63;;
45354;SDS011;31091;48.758;9.150;2023-01-30T18:50:16;6.90;;;3.60;;
45354;SDS011;31091;48.758;9.150;2023-01-30T18:53:01;7.28;;;3.45;;
45354;SDS011;31091;48.758;9.150;2023-01-30T18:55:47;5.78;;;3.10;;
45354;SDS011;31091;48.758;9.150;2023-01-30T18:58:33;7.40;;;3.17;;
45354;SDS011;31091;48.758;9.150;2023-01-30T19:01:20;7.72;;;3.38;;
45354;SDS011;31091;48.758;9.150;2023-01-30T19:04:07;8.90;;;4.80;;
45354;SDS011;31091;48.758;9.150;2023-01-30T19:06:52;8.38;;;3.53;;
45354;SDS011;31091;48.758;9.150;2023-01-30T19:09:38;7.10;;;3.42;;
45354;SDS011;31091;48.758;9.150;2023-01-30T19:12:23;8.88;;;3.13;;
45354;SDS011;31091;48.758;9.150;2023-01-30T19:15:28;8.07;;;3.40;;
45354;SDS011;31091;48.758;9.150;2023-01-30T19:18:13;6.88;;;3.47;;
45354;SDS011;31091;48.758;9.150;2023-01-30T19:20:58;8.32;;;3.63;;
45354;SDS011;31091;48.758;9.150;2023-01-30T19:23:44;9.23;;;3.83;;